createdAt,value
2023-08-25T00:01:20.069Z,20.98
2023-08-25T00:03:46.895Z,20.98
2023-08-25T00:06:13.685Z,20.89
2023-08-25T00:08:40.534Z,20.84
2023-08-25T00:11:07.266Z,20.87
2023-08-25T00:13:36.659Z,20.92
2023-08-25T00:16:06.757Z,20.94
2023-08-25T00:18:34.116Z,20.98
2023-08-25T00:21:01.083Z,20.98
2023-08-25T00:23:27.938Z,20.99
2023-08-25T00:25:55.676Z,21.04
2023-08-25T00:28:22.435Z,21.03
2023-08-25T00:30:50.088Z,21.01
2023-08-25T00:33:16.842Z,20.98
2023-08-25T00:35:44.010Z,20.98
2023-08-25T00:38:11.034Z,21.02
2023-08-25T00:40:38.178Z,21.01
2023-08-25T00:43:05.109Z,20.98
2023-08-25T00:45:37.113Z,20.97
2023-08-25T00:48:04.244Z,21.02
2023-08-25T00:50:31.078Z,20.98
2023-08-25T00:52:58.503Z,20.95
2023-08-25T00:55:25.310Z,20.96
2023-08-25T00:57:52.652Z,20.93
2023-08-25T01:00:19.568Z,20.89
2023-08-25T01:02:46.427Z,20.88
2023-08-25T01:05:13.245Z,20.93
2023-08-25T01:07:39.968Z,20.93
2023-08-25T01:10:07.465Z,20.89
2023-08-25T01:12:45.583Z,20.87
2023-08-25T01:15:23.169Z,20.90
2023-08-25T01:18:12.833Z,20.89
2023-08-25T01:20:40.251Z,20.86
2023-08-25T01:23:25.900Z,20.81
2023-08-25T01:25:52.714Z,20.78
2023-08-25T01:28:21.303Z,20.82
2023-08-25T01:30:50.392Z,20.82
2023-08-25T01:33:17.987Z,20.87
2023-08-25T01:36:17.157Z,20.82
2023-08-25T01:38:50.047Z,20.83
2023-08-25T01:41:22.587Z,20.76
2023-08-25T01:43:51.806Z,20.70
2023-08-25T01:46:19.849Z,20.67
2023-08-25T01:48:48.547Z,20.59
2023-08-25T01:51:17.587Z,20.61
2023-08-25T01:53:57.313Z,20.62
2023-08-25T01:56:25.064Z,20.63
2023-08-25T01:58:51.869Z,20.52
2023-08-25T02:01:18.728Z,20.53
2023-08-25T02:03:45.678Z,20.52
2023-08-25T02:06:12.521Z,20.57
2023-08-25T02:08:39.596Z,20.57
2023-08-25T02:11:06.327Z,20.54
2023-08-25T02:13:33.063Z,20.58
2023-08-25T02:16:00.176Z,20.53
2023-08-25T02:18:26.945Z,20.53
2023-08-25T02:20:56.324Z,20.56
2023-08-25T02:23:23.638Z,20.61
2023-08-25T02:25:50.469Z,20.55
2023-08-25T02:28:17.175Z,20.51
2023-08-25T02:30:44.023Z,20.59
2023-08-25T02:33:10.725Z,20.57
2023-08-25T02:35:37.469Z,20.53
2023-08-25T02:38:05.927Z,20.55
2023-08-25T02:40:33.036Z,20.54
2023-08-25T02:43:05.881Z,20.55
2023-08-25T02:45:36.869Z,20.56
2023-08-25T02:48:04.248Z,20.61
2023-08-25T02:50:31.168Z,20.61
2023-08-25T02:52:58.328Z,20.54
2023-08-25T02:55:25.410Z,20.48
2023-08-25T02:57:53.374Z,20.51
2023-08-25T03:00:23.246Z,20.53
2023-08-25T03:02:50.654Z,20.50
2023-08-25T03:05:17.881Z,20.49
2023-08-25T03:07:44.665Z,20.51
2023-08-25T03:10:11.606Z,20.52
2023-08-25T03:12:39.029Z,20.55
2023-08-25T03:15:06.178Z,20.52
2023-08-25T03:17:33.073Z,20.51
2023-08-25T03:19:59.975Z,20.52
2023-08-25T03:22:26.716Z,20.49
2023-08-25T03:24:53.544Z,20.44
2023-08-25T03:27:20.265Z,20.38
2023-08-25T03:29:47.085Z,20.38
2023-08-25T03:32:13.850Z,20.37
2023-08-25T03:34:41.195Z,20.37
2023-08-25T03:37:08.569Z,20.40
2023-08-25T03:39:35.484Z,20.46
2023-08-25T03:42:02.190Z,20.48
2023-08-25T03:44:28.914Z,20.49
2023-08-25T03:46:55.645Z,20.41
2023-08-25T03:49:22.384Z,20.34
2023-08-25T03:51:49.076Z,20.36
2023-08-25T03:54:15.843Z,20.37
2023-08-25T03:56:42.569Z,20.25
2023-08-25T03:59:09.276Z,20.25
2023-08-25T04:01:36.485Z,20.18
2023-08-25T04:04:03.550Z,20.20
2023-08-25T04:06:30.335Z,20.17
2023-08-25T04:08:57.136Z,20.12
2023-08-25T04:11:23.954Z,20.06
2023-08-25T04:13:56.610Z,20.02
2023-08-25T04:16:23.314Z,19.99
2023-08-25T04:18:50.185Z,20.00
2023-08-25T04:21:16.877Z,20.04
2023-08-25T04:23:43.554Z,20.07
2023-08-25T04:26:10.273Z,20.07
2023-08-25T04:28:36.971Z,20.00
2023-08-25T04:31:03.962Z,19.96
2023-08-25T04:33:30.750Z,19.96
2023-08-25T04:35:57.576Z,20.05
2023-08-25T04:38:24.407Z,20.05
2023-08-25T04:40:51.100Z,20.00
2023-08-25T04:43:18.117Z,19.95
2023-08-25T04:45:44.881Z,19.89
2023-08-25T04:48:11.703Z,19.90
2023-08-25T04:50:39.071Z,19.91
2023-08-25T04:53:05.797Z,19.93
2023-08-25T04:55:32.573Z,19.90
2023-08-25T04:57:59.262Z,19.93
2023-08-25T05:00:35.230Z,19.97
2023-08-25T05:03:02.097Z,19.99
2023-08-25T05:05:28.858Z,19.97
2023-08-25T05:07:55.895Z,19.94
2023-08-25T05:10:22.881Z,19.93
2023-08-25T05:12:49.594Z,19.97
2023-08-25T05:15:16.379Z,20.01
2023-08-25T05:17:43.095Z,20.03
2023-08-25T05:20:10.359Z,20.03
2023-08-25T05:22:37.754Z,19.96
2023-08-25T05:25:05.134Z,19.99
2023-08-25T05:27:31.826Z,20.03
2023-08-25T05:29:58.581Z,20.04
2023-08-25T05:32:25.429Z,20.08
2023-08-25T05:34:52.149Z,20.11
2023-08-25T05:37:34.594Z,20.11
2023-08-25T05:40:01.513Z,20.17
2023-08-25T05:42:33.317Z,20.19
2023-08-25T05:45:00.052Z,20.13
2023-08-25T05:47:27.060Z,20.13
2023-08-25T05:49:53.743Z,20.16
2023-08-25T05:52:20.469Z,20.14
2023-08-25T05:54:47.690Z,20.20
2023-08-25T05:57:14.425Z,20.19
2023-08-25T05:59:44.351Z,20.25
2023-08-25T06:02:11.042Z,20.21
2023-08-25T06:04:43.938Z,20.21
2023-08-25T06:07:12.044Z,20.24
2023-08-25T06:09:38.781Z,20.21
2023-08-25T06:12:05.818Z,20.24
2023-08-25T06:14:32.600Z,20.22
2023-08-25T06:17:03.080Z,20.30
2023-08-25T06:19:30.077Z,20.31
2023-08-25T06:21:56.807Z,20.35
2023-08-25T06:24:23.540Z,20.24
2023-08-25T06:26:50.267Z,20.28
2023-08-25T06:29:17.117Z,20.32
2023-08-25T06:31:43.843Z,20.42
2023-08-25T06:34:10.690Z,20.46
2023-08-25T06:36:37.727Z,20.53
2023-08-25T06:39:05.193Z,20.56
2023-08-25T06:41:32.172Z,20.67
2023-08-25T06:44:00.552Z,20.69
2023-08-25T06:46:27.502Z,20.71
2023-08-25T06:48:54.353Z,20.78
2023-08-25T06:51:21.262Z,20.77
2023-08-25T06:53:48.120Z,20.77
2023-08-25T06:56:14.890Z,20.78
2023-08-25T06:58:41.670Z,20.76
2023-08-25T07:01:08.436Z,20.76
2023-08-25T07:03:36.415Z,20.76
2023-08-25T07:06:08.220Z,20.62
2023-08-25T07:08:34.908Z,20.60
2023-08-25T07:11:01.764Z,20.67
2023-08-25T07:13:28.502Z,20.73
2023-08-25T07:15:55.287Z,20.70
2023-08-25T07:18:22.078Z,20.69
2023-08-25T07:20:48.861Z,20.72
2023-08-25T07:23:15.662Z,20.70
2023-08-25T07:25:45.203Z,20.69
2023-08-25T07:28:12.748Z,20.67
2023-08-25T07:30:40.188Z,20.58
2023-08-25T07:33:09.904Z,20.55
2023-08-25T07:35:37.174Z,20.55
2023-08-25T07:38:04.623Z,20.54
2023-08-25T07:40:33.120Z,20.58
2023-08-25T07:43:04.442Z,20.59
2023-08-25T07:45:32.529Z,20.50
2023-08-25T07:48:01.406Z,20.51
2023-08-25T07:50:32.641Z,20.42
2023-08-25T07:53:00.191Z,20.36
2023-08-25T07:55:27.728Z,20.29
2023-08-25T07:57:55.157Z,20.20
2023-08-25T08:00:22.752Z,20.23
2023-08-25T08:02:51.064Z,20.19
2023-08-25T08:05:19.684Z,20.15
2023-08-25T08:07:47.652Z,20.21
2023-08-25T08:10:17.293Z,20.15
2023-08-25T08:12:45.753Z,20.15
2023-08-25T08:15:13.810Z,20.13
2023-08-25T08:17:41.636Z,20.06
2023-08-25T08:20:14.264Z,20.04
2023-08-25T08:22:42.420Z,19.99
2023-08-25T08:25:12.014Z,19.97
2023-08-25T08:27:40.818Z,19.91
2023-08-25T08:30:08.776Z,19.89
2023-08-25T08:32:36.842Z,19.84
2023-08-25T08:35:08.882Z,19.81
2023-08-25T08:37:36.499Z,19.82
2023-08-25T08:40:06.466Z,19.85
2023-08-25T08:42:40.847Z,19.85
2023-08-25T08:45:10.798Z,19.84
2023-08-25T08:47:38.596Z,19.86
2023-08-25T08:50:07.863Z,19.95
2023-08-25T08:52:34.814Z,20.01
2023-08-25T08:55:01.675Z,20.07
2023-08-25T08:57:29.222Z,20.05
2023-08-25T09:00:05.089Z,20.04
2023-08-25T09:02:33.811Z,20.05
2023-08-25T09:05:01.590Z,19.99
2023-08-25T09:07:32.717Z,20.04
2023-08-25T09:10:00.465Z,20.04
2023-08-25T09:12:27.501Z,20.08
2023-08-25T09:14:54.228Z,20.11
2023-08-25T09:17:20.999Z,20.12
2023-08-25T09:19:47.720Z,20.15
2023-08-25T09:22:17.725Z,20.10
2023-08-25T09:24:45.531Z,20.03
2023-08-25T09:27:23.882Z,20.00
2023-08-25T09:30:01.644Z,19.90
2023-08-25T09:32:29.950Z,19.97
2023-08-25T09:34:57.372Z,19.95
2023-08-25T09:37:41.001Z,19.84
2023-08-25T09:40:12.115Z,19.76
2023-08-25T09:42:38.867Z,19.71
2023-08-25T09:45:06.214Z,19.67
2023-08-25T09:47:33.398Z,19.64
2023-08-25T09:50:00.204Z,19.64
2023-08-25T09:52:30.605Z,19.69
2023-08-25T09:54:57.548Z,19.66
2023-08-25T09:57:25.074Z,19.63
2023-08-25T09:59:52.256Z,19.67
2023-08-25T10:02:19.611Z,19.68
2023-08-25T10:04:46.387Z,19.68
2023-08-25T10:07:13.552Z,19.73
2023-08-25T10:09:40.253Z,19.66
2023-08-25T10:12:09.152Z,19.60
2023-08-25T10:14:38.424Z,19.65
2023-08-25T10:17:06.181Z,19.59
2023-08-25T10:19:34.562Z,19.54
2023-08-25T10:22:03.116Z,19.56
2023-08-25T10:24:31.237Z,19.47
2023-08-25T10:26:58.549Z,19.43
2023-08-25T10:29:26.048Z,19.49
2023-08-25T10:31:59.413Z,19.45
2023-08-25T10:34:43.942Z,19.46
2023-08-25T10:37:15.279Z,19.48
2023-08-25T10:39:51.728Z,19.47
2023-08-25T10:42:28.525Z,19.53
2023-08-25T10:44:56.821Z,19.46
2023-08-25T10:47:24.585Z,19.42
2023-08-25T10:49:55.568Z,19.32
2023-08-25T10:52:22.879Z,19.39
2023-08-25T10:54:53.343Z,19.46
2023-08-25T10:57:26.462Z,19.46
2023-08-25T10:59:57.594Z,19.41
2023-08-25T11:02:37.298Z,19.46
2023-08-25T11:05:38.234Z,19.44
2023-08-25T11:08:06.298Z,19.40
2023-08-25T11:10:37.397Z,19.33
2023-08-25T11:13:10.794Z,19.43
2023-08-25T11:15:39.829Z,19.52
2023-08-25T11:18:10.257Z,19.55
2023-08-25T11:20:45.866Z,19.56
2023-08-25T11:23:18.921Z,19.59
2023-08-25T11:25:47.214Z,19.64
2023-08-25T11:28:14.041Z,19.67
2023-08-25T11:30:41.560Z,19.72
2023-08-25T11:33:08.553Z,19.82
2023-08-25T11:35:35.905Z,19.81
2023-08-25T11:38:03.532Z,19.85
2023-08-25T11:40:31.639Z,19.72
2023-08-25T11:42:58.511Z,19.86
2023-08-25T11:45:29.960Z,20.00
2023-08-25T11:47:57.790Z,20.10
2023-08-25T11:50:26.296Z,20.11
2023-08-25T11:52:55.913Z,20.26
2023-08-25T11:55:34.443Z,20.67
2023-08-25T11:58:08.109Z,20.91
2023-08-25T12:00:39.628Z,21.04
2023-08-25T12:03:07.491Z,21.13
2023-08-25T12:05:36.691Z,21.31
2023-08-25T12:08:04.431Z,21.47
2023-08-25T12:10:36.792Z,21.50
2023-08-25T12:13:03.938Z,21.52
2023-08-25T12:15:43.897Z,21.56
2023-08-25T12:18:13.657Z,21.34
2023-08-25T12:20:46.674Z,21.29
2023-08-25T12:23:15.268Z,21.30
2023-08-25T12:25:43.908Z,21.24
2023-08-25T12:28:12.346Z,21.21
2023-08-25T12:30:39.293Z,21.08
2023-08-25T12:33:07.396Z,21.08
2023-08-25T12:35:34.420Z,21.14
2023-08-25T12:38:01.283Z,21.21
2023-08-25T12:40:28.269Z,21.27
2023-08-25T12:42:56.870Z,21.32
2023-08-25T12:45:24.649Z,21.35
2023-08-25T12:47:52.449Z,21.34
2023-08-25T12:50:19.909Z,21.39
2023-08-25T12:52:46.946Z,21.46
2023-08-25T12:55:21.095Z,21.53
2023-08-25T12:57:51.108Z,21.48
2023-08-25T13:00:18.910Z,21.55
2023-08-25T13:02:46.112Z,21.74
2023-08-25T13:05:13.102Z,21.85
2023-08-25T13:07:40.596Z,22.00
2023-08-25T13:10:08.302Z,22.10
2023-08-25T13:12:35.182Z,22.17
2023-08-25T13:15:04.091Z,22.24
2023-08-25T13:17:30.972Z,22.39
2023-08-25T13:20:04.282Z,22.47
2023-08-25T13:22:31.232Z,22.48
2023-08-25T13:24:58.160Z,22.42
2023-08-25T13:27:24.944Z,22.44
2023-08-25T13:29:51.769Z,22.40
2023-08-25T13:32:18.488Z,22.40
2023-08-25T13:34:45.395Z,22.33
2023-08-25T13:37:12.468Z,22.33
2023-08-25T13:39:40.190Z,22.46
2023-08-25T13:42:10.392Z,22.48
2023-08-25T13:44:39.955Z,22.49
2023-08-25T13:47:08.849Z,22.44
2023-08-25T13:49:37.510Z,22.49
2023-08-25T13:52:04.602Z,22.61
2023-08-25T13:54:31.922Z,22.62
2023-08-25T13:56:59.140Z,22.69
2023-08-25T13:59:26.431Z,22.69
2023-08-25T14:01:53.433Z,22.72
2023-08-25T14:04:20.386Z,22.66
2023-08-25T14:06:47.216Z,22.65
2023-08-25T14:09:13.962Z,22.63
2023-08-25T14:11:40.715Z,22.64
2023-08-25T14:14:07.934Z,22.58
2023-08-25T14:16:38.088Z,22.51
2023-08-25T14:19:04.846Z,22.52
2023-08-25T14:21:31.623Z,22.50
2023-08-25T14:24:01.282Z,22.60
2023-08-25T14:26:28.632Z,22.70
2023-08-25T14:28:55.876Z,22.67
2023-08-25T14:31:22.782Z,22.71
2023-08-25T14:33:49.650Z,22.73
2023-08-25T14:36:16.443Z,22.75
2023-08-25T14:38:43.305Z,22.75
2023-08-25T14:41:10.232Z,22.76
2023-08-25T14:43:37.045Z,22.69
2023-08-25T14:46:06.869Z,22.71
2023-08-25T14:48:33.621Z,22.73
2023-08-25T14:51:03.358Z,22.66
2023-08-25T14:53:30.314Z,22.65
2023-08-25T14:55:57.214Z,22.71
2023-08-25T14:58:24.721Z,22.87
2023-08-25T15:00:57.960Z,23.03
2023-08-25T15:03:25.585Z,23.15
2023-08-25T15:06:00.499Z,23.07
2023-08-25T15:08:27.376Z,22.99
2023-08-25T15:10:54.152Z,22.88
2023-08-25T15:13:21.179Z,22.84
2023-08-25T15:15:49.993Z,22.82
2023-08-25T15:18:22.556Z,22.84
2023-08-25T15:21:05.422Z,22.89
2023-08-25T15:23:33.034Z,22.94
2023-08-25T15:26:00.168Z,23.09
2023-08-25T15:28:29.141Z,23.23
2023-08-25T15:31:05.918Z,23.28
2023-08-25T15:33:34.879Z,23.43
2023-08-25T15:36:02.827Z,23.66
2023-08-25T15:38:30.105Z,23.72
2023-08-25T15:40:57.934Z,23.70
2023-08-25T15:43:25.512Z,23.55
2023-08-25T15:45:55.683Z,23.38
2023-08-25T15:48:25.646Z,23.26
2023-08-25T15:50:54.934Z,23.13
2023-08-25T15:53:22.397Z,23.08
2023-08-25T15:55:51.192Z,23.03
2023-08-25T15:58:18.710Z,22.96
2023-08-25T16:00:46.865Z,22.92
2023-08-25T16:03:13.685Z,22.92
2023-08-25T16:05:40.622Z,22.85
2023-08-25T16:08:07.343Z,22.82
2023-08-25T16:10:34.160Z,22.78
2023-08-25T16:13:01.009Z,22.75
2023-08-25T16:15:32.268Z,22.69
2023-08-25T16:17:59.943Z,22.58
2023-08-25T16:20:33.274Z,22.48
2023-08-25T16:23:00.235Z,22.47
2023-08-25T16:25:28.403Z,22.54
2023-08-25T16:30:35.602Z,22.55
2023-08-25T16:33:02.570Z,22.53
2023-08-25T16:35:29.785Z,22.48
2023-08-25T16:37:58.521Z,22.47
2023-08-25T16:40:27.910Z,22.41
2023-08-25T16:43:00.486Z,22.41
2023-08-25T16:45:30.301Z,22.43
2023-08-25T16:47:57.624Z,22.40
2023-08-25T16:50:25.026Z,22.36
2023-08-25T16:52:52.005Z,22.33
2023-08-25T16:58:47.313Z,22.31
2023-08-25T17:01:18.958Z,22.31
2023-08-25T17:03:45.971Z,22.30
2023-08-25T17:06:15.940Z,22.29
2023-08-25T17:08:47.597Z,22.27
2023-08-25T17:11:17.235Z,22.24
2023-08-25T17:13:44.240Z,22.25
2023-08-25T17:16:14.665Z,22.26
2023-08-25T17:18:41.664Z,22.26
2023-08-25T17:21:08.388Z,22.27
2023-08-25T17:23:35.212Z,22.26
2023-08-25T17:26:02.132Z,22.26
2023-08-25T17:28:28.899Z,22.26
2023-08-25T17:31:09.572Z,22.23
2023-08-25T17:33:37.590Z,22.22
2023-08-25T17:36:10.262Z,22.24
2023-08-25T17:38:37.201Z,22.25
2023-08-25T17:41:11.453Z,22.24
2023-08-25T17:43:39.186Z,22.23
2023-08-25T17:46:08.095Z,22.22
2023-08-25T17:48:35.421Z,22.23
2023-08-25T17:51:02.326Z,22.22
2023-08-25T17:53:30.092Z,22.25
2023-08-25T17:55:57.725Z,22.24
2023-08-25T17:58:27.664Z,22.23
2023-08-25T18:01:01.888Z,22.22
2023-08-25T18:03:32.969Z,22.17
2023-08-25T18:06:04.266Z,22.16
2023-08-25T18:08:32.931Z,22.15
2023-08-25T18:11:00.513Z,22.08
2023-08-25T18:13:36.414Z,22.10
2023-08-25T18:16:07.274Z,22.07
2023-08-25T18:18:36.972Z,22.07
2023-08-25T18:21:04.277Z,22.00
2023-08-25T18:23:35.803Z,21.99
2023-08-25T18:26:02.769Z,21.96
2023-08-25T18:28:29.521Z,21.96
2023-08-25T18:31:05.440Z,21.93
2023-08-25T18:33:39.804Z,21.92
2023-08-25T18:36:07.708Z,21.87
2023-08-25T18:38:34.437Z,21.85
2023-08-25T18:41:03.501Z,21.81
2023-08-25T18:43:30.718Z,21.80
2023-08-25T18:46:02.231Z,21.80
2023-08-25T18:48:29.083Z,21.75
2023-08-25T18:50:57.570Z,21.74
2023-08-25T18:53:24.535Z,21.72
2023-08-25T18:55:52.860Z,21.72
2023-08-25T18:58:19.666Z,21.70
2023-08-25T19:00:48.209Z,21.65
2023-08-25T19:03:22.139Z,21.66
2023-08-25T19:05:52.886Z,21.65
2023-08-25T19:08:22.797Z,21.66
2023-08-25T19:10:54.104Z,21.70
2023-08-25T19:13:23.794Z,21.66
2023-08-25T19:15:58.226Z,21.60
2023-08-25T19:18:31.969Z,21.61
2023-08-25T19:21:02.145Z,21.64
2023-08-25T19:23:29.822Z,21.61
2023-08-25T19:25:58.696Z,21.59
2023-08-25T19:28:25.588Z,21.63
2023-08-25T19:30:52.921Z,21.58
2023-08-25T19:33:19.941Z,21.56
2023-08-25T19:35:54.392Z,21.55
2023-08-25T19:38:21.835Z,21.55
2023-08-25T19:40:49.521Z,21.53
2023-08-25T19:43:16.492Z,21.49
2023-08-25T19:45:44.462Z,21.50
2023-08-25T19:48:12.111Z,21.46
2023-08-25T19:50:39.813Z,21.44
2023-08-25T19:53:08.029Z,21.40
2023-08-25T19:55:37.120Z,21.40
2023-08-25T19:58:05.203Z,21.39
2023-08-25T20:00:38.056Z,21.41
2023-08-25T20:03:05.498Z,21.39
2023-08-25T20:05:32.367Z,21.35
2023-08-25T20:07:59.270Z,21.34
2023-08-25T20:10:27.455Z,21.30
2023-08-25T20:12:54.786Z,21.25
2023-08-25T20:15:22.057Z,21.19
2023-08-25T20:17:49.026Z,21.21
2023-08-25T20:20:16.042Z,21.18
2023-08-25T20:22:42.789Z,21.21
2023-08-25T20:25:10.549Z,21.22
2023-08-25T20:27:37.821Z,21.21
2023-08-25T20:30:08.400Z,21.19
2023-08-25T20:32:35.268Z,21.25
2023-08-25T20:35:02.079Z,21.22
2023-08-25T20:37:35.115Z,21.20
2023-08-25T20:40:01.911Z,21.16
2023-08-25T20:42:28.636Z,21.18
2023-08-25T20:44:55.477Z,21.12
2023-08-25T20:47:22.388Z,21.12
2023-08-25T20:49:49.242Z,21.06
2023-08-25T20:52:16.093Z,21.12
2023-08-25T20:54:43.062Z,21.06
2023-08-25T20:57:09.790Z,21.06
2023-08-25T20:59:36.558Z,21.01
2023-08-25T21:02:04.220Z,21.01
2023-08-25T21:04:31.196Z,21.00
2023-08-25T21:06:57.919Z,21.01
2023-08-25T21:09:24.648Z,21.01
2023-08-25T21:11:51.470Z,20.99
2023-08-25T21:14:18.221Z,20.95
2023-08-25T21:16:45.013Z,20.94
2023-08-25T21:19:11.769Z,20.95
2023-08-25T21:21:42.702Z,20.92
2023-08-25T21:24:12.136Z,20.89
2023-08-25T21:26:40.206Z,20.86
2023-08-25T21:29:08.734Z,20.84
2023-08-25T21:31:38.407Z,20.76
2023-08-25T21:34:08.393Z,20.70
2023-08-25T21:36:35.666Z,20.59
2023-08-25T21:39:02.711Z,20.59
2023-08-25T21:41:29.504Z,20.57
2023-08-25T21:43:56.217Z,20.60
2023-08-25T21:46:28.857Z,20.55
2023-08-25T21:48:55.822Z,20.58
2023-08-25T21:51:22.578Z,20.57
2023-08-25T21:53:49.300Z,20.55
2023-08-25T21:56:16.091Z,20.53
2023-08-25T21:58:42.804Z,20.45
2023-08-25T22:01:09.838Z,20.44
2023-08-25T22:03:36.668Z,20.44
2023-08-25T22:06:04.079Z,20.47
2023-08-25T22:08:31.097Z,20.50
2023-08-25T22:10:57.824Z,20.53
2023-08-25T22:13:24.991Z,20.56
2023-08-25T22:15:51.762Z,20.52
2023-08-25T22:18:18.690Z,20.43
2023-08-25T22:20:45.531Z,20.41
2023-08-25T22:23:12.315Z,20.35
2023-08-25T22:25:39.141Z,20.43
2023-08-25T22:28:06.098Z,20.39
2023-08-25T22:30:33.314Z,20.37
2023-08-25T22:35:29.687Z,20.31
2023-08-25T22:37:56.862Z,20.25
2023-08-25T22:40:23.720Z,20.14
2023-08-25T22:42:50.437Z,20.13
2023-08-25T22:45:17.298Z,20.07
2023-08-25T22:47:44.063Z,20.12
2023-08-25T22:50:11.286Z,20.07
2023-08-25T22:52:38.064Z,20.00
2023-08-25T22:55:05.618Z,19.96
2023-08-25T22:57:32.332Z,19.99
2023-08-25T22:59:59.081Z,20.03
2023-08-25T23:02:26.260Z,20.11
2023-08-25T23:04:53.070Z,20.10
2023-08-25T23:07:19.824Z,20.05
2023-08-25T23:09:46.532Z,20.07
2023-08-25T23:12:13.270Z,20.03
2023-08-25T23:14:39.966Z,20.04
2023-08-25T23:17:06.682Z,20.12
2023-08-25T23:19:33.413Z,20.08
2023-08-25T23:22:00.237Z,20.13
2023-08-25T23:24:27.000Z,20.11
2023-08-25T23:26:53.735Z,20.12
2023-08-25T23:29:20.583Z,20.04
2023-08-25T23:31:47.362Z,19.98
2023-08-25T23:34:14.158Z,20.00
2023-08-25T23:36:40.882Z,19.91
2023-08-25T23:39:07.614Z,19.91
2023-08-25T23:41:35.783Z,19.92
2023-08-25T23:44:02.480Z,19.96
2023-08-25T23:46:29.203Z,19.96
2023-08-25T23:48:55.929Z,19.92
2023-08-25T23:51:22.674Z,19.80
2023-08-25T23:53:49.431Z,19.77
2023-08-25T23:56:16.146Z,19.72
2023-08-25T23:58:42.882Z,19.79
